sensor_id;sensor_type;location;lat;lon;timestamp;P1;durP1;ratioP1;P2;durP2;ratioP2
77573;SDS011;66710;48.868;9.080;2024-01-10T00:02:18;16.80;;;6.30;;
77573;SDS011;66710;48.868;9.080;2024-01-10T00:04:44;12.67;;;5.47;;
77573;SDS011;66710;48.868;9.080;2024-01-10T00:07:09;15.80;;;6.37;;
77573;SDS011;66710;48.868;9.080;2024-01-10T00:09:34;16.00;;;6.50;;
77573;SDS011;66710;48.868;9.080;2024-01-10T00:12:00;14.40;;;6.40;;
77573;SDS011;66710;48.868;9.080;2024-01-10T00:14:25;13.80;;;5.73;;
77573;SDS011;66710;48.868;9.080;2024-01-10T00:16:50;17.17;;;6.00;;
77573;SDS011;66710;48.868;9.080;2024-01-10T00:19:16;16.50;;;6.47;;
77573;SDS011;66710;48.868;9.080;2024-01-10T00:21:41;11.63;;;5.50;;
77573;SDS011;66710;48.868;9.080;2024-01-10T00:24:07;16.97;;;6.00;;
77573;SDS011;66710;48.868;9.080;2024-01-10T00:26:32;11.23;;;5.87;;
77573;SDS011;66710;48.868;9.080;2024-01-10T00:28:57;19.13;;;6.13;;
77573;SDS011;66710;48.868;9.080;2024-01-10T00:31:23;17.03;;;6.57;;
77573;SDS011;66710;48.868;9.080;2024-01-10T00:33:48;15.87;;;5.77;;
77573;SDS011;66710;48.868;9.080;2024-01-10T00:36:14;15.33;;;5.93;;
77573;SDS011;66710;48.868;9.080;2024-01-10T00:38:39;18.07;;;6.70;;
77573;SDS011;66710;48.868;9.080;2024-01-10T00:41:05;22.20;;;8.67;;
77573;SDS011;66710;48.868;9.080;2024-01-10T00:43:30;18.17;;;8.13;;
77573;SDS011;66710;48.868;9.080;2024-01-10T00:45:56;19.63;;;8.23;;
77573;SDS011;66710;48.868;9.080;2024-01-10T00:48:21;20.17;;;8.27;;
77573;SDS011;66710;48.868;9.080;2024-01-10T00:50:46;18.17;;;7.90;;
77573;SDS011;66710;48.868;9.080;2024-01-10T00:53:12;20.03;;;7.73;;
77573;SDS011;66710;48.868;9.080;2024-01-10T00:55:38;19.73;;;7.60;;
77573;SDS011;66710;48.868;9.080;2024-01-10T00:58:03;18.80;;;8.07;;
77573;SDS011;66710;48.868;9.080;2024-01-10T01:00:29;17.33;;;7.53;;
77573;SDS011;66710;48.868;9.080;2024-01-10T01:02:54;20.27;;;7.63;;
77573;SDS011;66710;48.868;9.080;2024-01-10T01:05:19;17.30;;;7.13;;
77573;SDS011;66710;48.868;9.080;2024-01-10T01:07:45;21.43;;;7.50;;
77573;SDS011;66710;48.868;9.080;2024-01-10T01:10:10;20.97;;;8.70;;
77573;SDS011;66710;48.868;9.080;2024-01-10T01:12:36;16.57;;;7.50;;
77573;SDS011;66710;48.868;9.080;2024-01-10T01:15:01;18.37;;;8.17;;
77573;SDS011;66710;48.868;9.080;2024-01-10T01:17:27;18.87;;;7.67;;
77573;SDS011;66710;48.868;9.080;2024-01-10T01:19:52;16.50;;;8.20;;
77573;SDS011;66710;48.868;9.080;2024-01-10T01:22:18;16.07;;;7.43;;
77573;SDS011;66710;48.868;9.080;2024-01-10T01:24:43;18.57;;;8.10;;
77573;SDS011;66710;48.868;9.080;2024-01-10T01:27:09;18.27;;;7.83;;
77573;SDS011;66710;48.868;9.080;2024-01-10T01:29:34;19.50;;;8.17;;
77573;SDS011;66710;48.868;9.080;2024-01-10T01:31:59;20.90;;;9.23;;
77573;SDS011;66710;48.868;9.080;2024-01-10T01:34:25;21.93;;;7.97;;
77573;SDS011;66710;48.868;9.080;2024-01-10T01:36:50;19.57;;;6.83;;
77573;SDS011;66710;48.868;9.080;2024-01-10T01:39:16;14.77;;;6.27;;
77573;SDS011;66710;48.868;9.080;2024-01-10T01:41:42;17.03;;;6.60;;
77573;SDS011;66710;48.868;9.080;2024-01-10T01:44:08;16.27;;;6.87;;
77573;SDS011;66710;48.868;9.080;2024-01-10T01:46:33;17.13;;;6.70;;
77573;SDS011;66710;48.868;9.080;2024-01-10T01:48:59;11.33;;;5.53;;
77573;SDS011;66710;48.868;9.080;2024-01-10T01:51:25;15.93;;;5.73;;
77573;SDS011;66710;48.868;9.080;2024-01-10T01:53:53;16.93;;;6.90;;
77573;SDS011;66710;48.868;9.080;2024-01-10T01:56:19;13.40;;;6.27;;
77573;SDS011;66710;48.868;9.080;2024-01-10T01:58:45;16.63;;;6.23;;
77573;SDS011;66710;48.868;9.080;2024-01-10T02:01:11;14.57;;;6.83;;
77573;SDS011;66710;48.868;9.080;2024-01-10T02:03:37;15.30;;;6.30;;
77573;SDS011;66710;48.868;9.080;2024-01-10T02:06:02;9.97;;;5.60;;
77573;SDS011;66710;48.868;9.080;2024-01-10T02:08:32;11.67;;;5.60;;
77573;SDS011;66710;48.868;9.080;2024-01-10T02:10:58;14.53;;;5.67;;
77573;SDS011;66710;48.868;9.080;2024-01-10T02:13:25;18.83;;;6.57;;
77573;SDS011;66710;48.868;9.080;2024-01-10T02:15:51;15.17;;;6.10;;
77573;SDS011;66710;48.868;9.080;2024-01-10T02:18:16;15.20;;;5.53;;
77573;SDS011;66710;48.868;9.080;2024-01-10T02:20:43;12.73;;;4.83;;
77573;SDS011;66710;48.868;9.080;2024-01-10T02:23:11;12.27;;;5.47;;
77573;SDS011;66710;48.868;9.080;2024-01-10T02:25:37;14.13;;;6.20;;
77573;SDS011;66710;48.868;9.080;2024-01-10T02:28:03;15.83;;;6.83;;
77573;SDS011;66710;48.868;9.080;2024-01-10T02:30:28;15.23;;;6.07;;
77573;SDS011;66710;48.868;9.080;2024-01-10T02:32:54;15.60;;;5.80;;
77573;SDS011;66710;48.868;9.080;2024-01-10T02:35:19;7.67;;;3.57;;
77573;SDS011;66710;48.868;9.080;2024-01-10T02:37:44;12.83;;;5.93;;
77573;SDS011;66710;48.868;9.080;2024-01-10T02:40:10;14.93;;;5.87;;
77573;SDS011;66710;48.868;9.080;2024-01-10T02:42:36;14.57;;;6.17;;
77573;SDS011;66710;48.868;9.080;2024-01-10T02:45:01;12.37;;;5.00;;
77573;SDS011;66710;48.868;9.080;2024-01-10T02:47:27;14.70;;;5.80;;
77573;SDS011;66710;48.868;9.080;2024-01-10T02:49:54;12.63;;;5.93;;
77573;SDS011;66710;48.868;9.080;2024-01-10T02:52:19;15.63;;;5.90;;
77573;SDS011;66710;48.868;9.080;2024-01-10T02:54:45;13.77;;;6.50;;
77573;SDS011;66710;48.868;9.080;2024-01-10T02:57:11;14.00;;;6.10;;
77573;SDS011;66710;48.868;9.080;2024-01-10T02:59:37;13.87;;;6.00;;
77573;SDS011;66710;48.868;9.080;2024-01-10T03:02:02;14.70;;;6.13;;
77573;SDS011;66710;48.868;9.080;2024-01-10T03:04:27;14.33;;;5.93;;
77573;SDS011;66710;48.868;9.080;2024-01-10T03:06:53;11.50;;;5.63;;
77573;SDS011;66710;48.868;9.080;2024-01-10T03:09:18;11.90;;;5.00;;
77573;SDS011;66710;48.868;9.080;2024-01-10T03:11:43;9.53;;;5.37;;
77573;SDS011;66710;48.868;9.080;2024-01-10T03:14:09;13.10;;;6.00;;
77573;SDS011;66710;48.868;9.080;2024-01-10T03:16:36;15.73;;;6.20;;
77573;SDS011;66710;48.868;9.080;2024-01-10T03:19:02;15.43;;;6.47;;
77573;SDS011;66710;48.868;9.080;2024-01-10T03:21:28;17.03;;;6.87;;
77573;SDS011;66710;48.868;9.080;2024-01-10T03:23:56;14.83;;;6.50;;
77573;SDS011;66710;48.868;9.080;2024-01-10T03:26:24;15.80;;;6.50;;
77573;SDS011;66710;48.868;9.080;2024-01-10T03:28:50;14.90;;;6.43;;
77573;SDS011;66710;48.868;9.080;2024-01-10T03:31:16;17.63;;;6.47;;
77573;SDS011;66710;48.868;9.080;2024-01-10T03:33:42;12.10;;;5.80;;
77573;SDS011;66710;48.868;9.080;2024-01-10T03:36:11;16.13;;;6.50;;
77573;SDS011;66710;48.868;9.080;2024-01-10T03:38:41;14.17;;;5.90;;
77573;SDS011;66710;48.868;9.080;2024-01-10T03:41:07;14.40;;;5.80;;
77573;SDS011;66710;48.868;9.080;2024-01-10T03:43:32;14.80;;;6.83;;
77573;SDS011;66710;48.868;9.080;2024-01-10T03:45:58;13.43;;;5.83;;
77573;SDS011;66710;48.868;9.080;2024-01-10T03:48:23;13.90;;;5.63;;
77573;SDS011;66710;48.868;9.080;2024-01-10T03:50:49;15.47;;;5.83;;
77573;SDS011;66710;48.868;9.080;2024-01-10T03:53:15;16.93;;;6.63;;
77573;SDS011;66710;48.868;9.080;2024-01-10T03:55:40;15.80;;;6.03;;
77573;SDS011;66710;48.868;9.080;2024-01-10T03:58:06;13.90;;;6.07;;
77573;SDS011;66710;48.868;9.080;2024-01-10T04:00:31;13.60;;;6.27;;
77573;SDS011;66710;48.868;9.080;2024-01-10T04:02:57;16.37;;;6.73;;
77573;SDS011;66710;48.868;9.080;2024-01-10T04:05:22;15.57;;;6.37;;
77573;SDS011;66710;48.868;9.080;2024-01-10T04:07:50;11.87;;;4.90;;
77573;SDS011;66710;48.868;9.080;2024-01-10T04:10:16;13.17;;;6.13;;
77573;SDS011;66710;48.868;9.080;2024-01-10T04:12:42;16.00;;;6.73;;
77573;SDS011;66710;48.868;9.080;2024-01-10T04:15:08;14.97;;;6.23;;
77573;SDS011;66710;48.868;9.080;2024-01-10T04:17:34;15.80;;;6.43;;
77573;SDS011;66710;48.868;9.080;2024-01-10T04:19:59;11.27;;;4.37;;
77573;SDS011;66710;48.868;9.080;2024-01-10T04:22:25;11.47;;;5.77;;
77573;SDS011;66710;48.868;9.080;2024-01-10T04:24:50;15.07;;;6.00;;
77573;SDS011;66710;48.868;9.080;2024-01-10T04:27:16;14.07;;;6.33;;
77573;SDS011;66710;48.868;9.080;2024-01-10T04:29:43;14.37;;;5.83;;
77573;SDS011;66710;48.868;9.080;2024-01-10T04:32:08;18.47;;;7.00;;
77573;SDS011;66710;48.868;9.080;2024-01-10T04:34:34;17.80;;;6.80;;
77573;SDS011;66710;48.868;9.080;2024-01-10T04:36:59;13.00;;;5.87;;
77573;SDS011;66710;48.868;9.080;2024-01-10T04:39:25;15.70;;;6.60;;
77573;SDS011;66710;48.868;9.080;2024-01-10T04:41:50;14.70;;;6.73;;
77573;SDS011;66710;48.868;9.080;2024-01-10T04:44:15;16.07;;;7.23;;
77573;SDS011;66710;48.868;9.080;2024-01-10T04:46:41;14.20;;;6.73;;
77573;SDS011;66710;48.868;9.080;2024-01-10T04:49:07;13.47;;;6.53;;
77573;SDS011;66710;48.868;9.080;2024-01-10T04:51:32;13.10;;;6.23;;
77573;SDS011;66710;48.868;9.080;2024-01-10T04:53:58;13.50;;;6.63;;
77573;SDS011;66710;48.868;9.080;2024-01-10T04:56:24;10.57;;;5.67;;
77573;SDS011;66710;48.868;9.080;2024-01-10T04:58:50;13.97;;;6.77;;
77573;SDS011;66710;48.868;9.080;2024-01-10T05:01:16;16.63;;;6.70;;
77573;SDS011;66710;48.868;9.080;2024-01-10T05:03:41;16.53;;;6.73;;
77573;SDS011;66710;48.868;9.080;2024-01-10T05:06:07;15.47;;;6.23;;
77573;SDS011;66710;48.868;9.080;2024-01-10T05:08:32;13.73;;;6.13;;
77573;SDS011;66710;48.868;9.080;2024-01-10T05:10:58;12.87;;;6.23;;
77573;SDS011;66710;48.868;9.080;2024-01-10T05:13:23;15.10;;;7.07;;
77573;SDS011;66710;48.868;9.080;2024-01-10T05:15:48;12.13;;;5.70;;
77573;SDS011;66710;48.868;9.080;2024-01-10T05:18:14;13.70;;;6.33;;
77573;SDS011;66710;48.868;9.080;2024-01-10T05:20:40;14.77;;;5.67;;
77573;SDS011;66710;48.868;9.080;2024-01-10T05:23:06;11.17;;;5.33;;
77573;SDS011;66710;48.868;9.080;2024-01-10T05:25:31;10.50;;;4.53;;
77573;SDS011;66710;48.868;9.080;2024-01-10T05:27:57;14.17;;;5.20;;
77573;SDS011;66710;48.868;9.080;2024-01-10T05:30:22;10.33;;;4.57;;
77573;SDS011;66710;48.868;9.080;2024-01-10T05:32:48;12.73;;;5.63;;
77573;SDS011;66710;48.868;9.080;2024-01-10T05:35:13;18.70;;;6.67;;
77573;SDS011;66710;48.868;9.080;2024-01-10T05:37:38;15.60;;;6.10;;
77573;SDS011;66710;48.868;9.080;2024-01-10T05:40:04;13.77;;;6.23;;
77573;SDS011;66710;48.868;9.080;2024-01-10T05:42:31;16.10;;;6.37;;
77573;SDS011;66710;48.868;9.080;2024-01-10T05:44:57;15.30;;;6.53;;
77573;SDS011;66710;48.868;9.080;2024-01-10T05:47:23;15.53;;;5.87;;
77573;SDS011;66710;48.868;9.080;2024-01-10T05:49:48;14.30;;;6.17;;
77573;SDS011;66710;48.868;9.080;2024-01-10T05:52:14;16.97;;;5.83;;
77573;SDS011;66710;48.868;9.080;2024-01-10T05:54:39;12.87;;;5.93;;
77573;SDS011;66710;48.868;9.080;2024-01-10T05:57:05;16.07;;;6.13;;
77573;SDS011;66710;48.868;9.080;2024-01-10T05:59:30;18.83;;;7.60;;
77573;SDS011;66710;48.868;9.080;2024-01-10T06:01:56;15.90;;;6.20;;
77573;SDS011;66710;48.868;9.080;2024-01-10T06:04:22;17.73;;;6.50;;
77573;SDS011;66710;48.868;9.080;2024-01-10T06:06:48;14.07;;;6.63;;
77573;SDS011;66710;48.868;9.080;2024-01-10T06:09:13;19.60;;;6.73;;
77573;SDS011;66710;48.868;9.080;2024-01-10T06:11:43;16.00;;;6.33;;
77573;SDS011;66710;48.868;9.080;2024-01-10T06:14:08;16.63;;;6.13;;
77573;SDS011;66710;48.868;9.080;2024-01-10T06:16:33;18.30;;;7.17;;
77573;SDS011;66710;48.868;9.080;2024-01-10T06:18:59;12.80;;;5.73;;
77573;SDS011;66710;48.868;9.080;2024-01-10T06:21:24;12.47;;;6.20;;
77573;SDS011;66710;48.868;9.080;2024-01-10T06:23:50;14.47;;;5.70;;
77573;SDS011;66710;48.868;9.080;2024-01-10T06:26:15;11.50;;;4.90;;
77573;SDS011;66710;48.868;9.080;2024-01-10T06:28:41;13.10;;;6.07;;
77573;SDS011;66710;48.868;9.080;2024-01-10T06:31:07;14.90;;;6.97;;
77573;SDS011;66710;48.868;9.080;2024-01-10T06:33:33;11.90;;;6.00;;
77573;SDS011;66710;48.868;9.080;2024-01-10T06:35:58;15.60;;;6.73;;
77573;SDS011;66710;48.868;9.080;2024-01-10T06:38:23;16.23;;;7.57;;
77573;SDS011;66710;48.868;9.080;2024-01-10T06:40:49;15.47;;;6.70;;
77573;SDS011;66710;48.868;9.080;2024-01-10T06:43:15;15.90;;;6.47;;
77573;SDS011;66710;48.868;9.080;2024-01-10T06:45:41;19.67;;;7.10;;
77573;SDS011;66710;48.868;9.080;2024-01-10T06:48:07;24.17;;;7.17;;
77573;SDS011;66710;48.868;9.080;2024-01-10T06:50:33;18.90;;;7.37;;
77573;SDS011;66710;48.868;9.080;2024-01-10T06:52:59;15.07;;;6.10;;
77573;SDS011;66710;48.868;9.080;2024-01-10T06:55:24;14.83;;;6.80;;
77573;SDS011;66710;48.868;9.080;2024-01-10T06:57:49;16.53;;;6.70;;
77573;SDS011;66710;48.868;9.080;2024-01-10T07:00:18;16.80;;;6.73;;
77573;SDS011;66710;48.868;9.080;2024-01-10T07:02:47;15.43;;;6.83;;
77573;SDS011;66710;48.868;9.080;2024-01-10T07:05:13;16.03;;;7.10;;
77573;SDS011;66710;48.868;9.080;2024-01-10T07:07:39;18.00;;;7.23;;
77573;SDS011;66710;48.868;9.080;2024-01-10T07:10:04;17.83;;;6.30;;
77573;SDS011;66710;48.868;9.080;2024-01-10T07:12:31;15.53;;;6.67;;
77573;SDS011;66710;48.868;9.080;2024-01-10T07:14:57;13.70;;;6.00;;
77573;SDS011;66710;48.868;9.080;2024-01-10T07:17:23;15.43;;;7.50;;
77573;SDS011;66710;48.868;9.080;2024-01-10T07:19:48;14.23;;;7.20;;
77573;SDS011;66710;48.868;9.080;2024-01-10T07:22:14;16.93;;;7.20;;
77573;SDS011;66710;48.868;9.080;2024-01-10T07:24:39;16.80;;;7.13;;
77573;SDS011;66710;48.868;9.080;2024-01-10T07:27:04;18.93;;;6.67;;
77573;SDS011;66710;48.868;9.080;2024-01-10T07:29:31;12.93;;;5.47;;
77573;SDS011;66710;48.868;9.080;2024-01-10T07:31:57;15.90;;;7.50;;
77573;SDS011;66710;48.868;9.080;2024-01-10T07:34:22;17.83;;;7.13;;
77573;SDS011;66710;48.868;9.080;2024-01-10T07:36:47;16.10;;;6.87;;
77573;SDS011;66710;48.868;9.080;2024-01-10T07:39:12;17.07;;;7.77;;
77573;SDS011;66710;48.868;9.080;2024-01-10T07:41:41;15.67;;;7.03;;
77573;SDS011;66710;48.868;9.080;2024-01-10T07:44:07;24.10;;;7.20;;
77573;SDS011;66710;48.868;9.080;2024-01-10T07:46:34;15.80;;;6.43;;
77573;SDS011;66710;48.868;9.080;2024-01-10T07:49:02;17.00;;;7.30;;
77573;SDS011;66710;48.868;9.080;2024-01-10T07:51:29;15.70;;;6.77;;
77573;SDS011;66710;48.868;9.080;2024-01-10T07:53:54;17.40;;;6.53;;
77573;SDS011;66710;48.868;9.080;2024-01-10T07:56:20;16.03;;;6.70;;
77573;SDS011;66710;48.868;9.080;2024-01-10T07:58:45;14.43;;;6.53;;
77573;SDS011;66710;48.868;9.080;2024-01-10T08:01:11;15.47;;;7.87;;
77573;SDS011;66710;48.868;9.080;2024-01-10T08:03:36;14.63;;;6.23;;
77573;SDS011;66710;48.868;9.080;2024-01-10T08:06:02;15.97;;;7.67;;
77573;SDS011;66710;48.868;9.080;2024-01-10T08:08:28;16.83;;;7.53;;
77573;SDS011;66710;48.868;9.080;2024-01-10T08:10:54;15.80;;;6.90;;
77573;SDS011;66710;48.868;9.080;2024-01-10T08:13:21;19.47;;;7.67;;
77573;SDS011;66710;48.868;9.080;2024-01-10T08:15:46;16.07;;;6.37;;
77573;SDS011;66710;48.868;9.080;2024-01-10T08:18:11;14.03;;;7.27;;
77573;SDS011;66710;48.868;9.080;2024-01-10T08:20:39;18.63;;;7.07;;
77573;SDS011;66710;48.868;9.080;2024-01-10T08:23:04;16.20;;;7.83;;
77573;SDS011;66710;48.868;9.080;2024-01-10T08:25:29;16.10;;;7.47;;
77573;SDS011;66710;48.868;9.080;2024-01-10T08:27:55;19.07;;;7.63;;
77573;SDS011;66710;48.868;9.080;2024-01-10T08:30:22;18.67;;;7.57;;
77573;SDS011;66710;48.868;9.080;2024-01-10T08:32:47;25.17;;;7.60;;
77573;SDS011;66710;48.868;9.080;2024-01-10T08:35:13;17.30;;;7.30;;
77573;SDS011;66710;48.868;9.080;2024-01-10T08:37:39;19.10;;;7.67;;
77573;SDS011;66710;48.868;9.080;2024-01-10T08:40:08;18.93;;;6.87;;
77573;SDS011;66710;48.868;9.080;2024-01-10T08:42:36;15.93;;;6.80;;
77573;SDS011;66710;48.868;9.080;2024-01-10T08:45:03;18.73;;;8.03;;
77573;SDS011;66710;48.868;9.080;2024-01-10T08:47:29;17.90;;;7.53;;
77573;SDS011;66710;48.868;9.080;2024-01-10T08:49:57;17.97;;;7.60;;
77573;SDS011;66710;48.868;9.080;2024-01-10T08:52:23;14.57;;;6.80;;
77573;SDS011;66710;48.868;9.080;2024-01-10T08:54:49;15.07;;;6.97;;
77573;SDS011;66710;48.868;9.080;2024-01-10T08:57:14;15.33;;;6.97;;
77573;SDS011;66710;48.868;9.080;2024-01-10T08:59:42;18.67;;;7.80;;
77573;SDS011;66710;48.868;9.080;2024-01-10T09:02:07;3.93;;;2.37;;
77573;SDS011;66710;48.868;9.080;2024-01-10T09:04:33;15.03;;;6.03;;
77573;SDS011;66710;48.868;9.080;2024-01-10T09:06:58;12.37;;;6.37;;
77573;SDS011;66710;48.868;9.080;2024-01-10T09:09:23;17.37;;;8.30;;
77573;SDS011;66710;48.868;9.080;2024-01-10T09:11:49;18.23;;;8.20;;
77573;SDS011;66710;48.868;9.080;2024-01-10T09:14:14;19.10;;;9.17;;
77573;SDS011;66710;48.868;9.080;2024-01-10T09:16:40;16.47;;;7.07;;
77573;SDS011;66710;48.868;9.080;2024-01-10T09:19:05;19.13;;;8.50;;
77573;SDS011;66710;48.868;9.080;2024-01-10T09:21:30;17.73;;;7.57;;
77573;SDS011;66710;48.868;9.080;2024-01-10T09:23:56;20.43;;;8.80;;
77573;SDS011;66710;48.868;9.080;2024-01-10T09:26:21;21.63;;;9.37;;
77573;SDS011;66710;48.868;9.080;2024-01-10T09:28:47;20.17;;;9.00;;
77573;SDS011;66710;48.868;9.080;2024-01-10T09:31:13;22.53;;;10.00;;
77573;SDS011;66710;48.868;9.080;2024-01-10T09:33:38;23.63;;;10.30;;
77573;SDS011;66710;48.868;9.080;2024-01-10T09:36:05;23.23;;;9.50;;
77573;SDS011;66710;48.868;9.080;2024-01-10T09:38:34;21.67;;;10.48;;
77573;SDS011;66710;48.868;9.080;2024-01-10T09:41:01;20.75;;;9.70;;
77573;SDS011;66710;48.868;9.080;2024-01-10T09:43:29;22.63;;;8.67;;
77573;SDS011;66710;48.868;9.080;2024-01-10T09:45:55;13.07;;;5.37;;
77573;SDS011;66710;48.868;9.080;2024-01-10T09:48:23;23.25;;;9.88;;
77573;SDS011;66710;48.868;9.080;2024-01-10T09:50:50;18.23;;;9.43;;
77573;SDS011;66710;48.868;9.080;2024-01-10T09:53:22;20.63;;;8.60;;
77573;SDS011;66710;48.868;9.080;2024-01-10T09:55:49;19.90;;;9.00;;
77573;SDS011;66710;48.868;9.080;2024-01-10T09:58:14;8.48;;;4.07;;
77573;SDS011;66710;48.868;9.080;2024-01-10T10:00:40;20.13;;;10.38;;
77573;SDS011;66710;48.868;9.080;2024-01-10T10:03:08;21.83;;;10.40;;
77573;SDS011;66710;48.868;9.080;2024-01-10T10:08:06;20.20;;;9.52;;
77573;SDS011;66710;48.868;9.080;2024-01-10T10:10:32;22.30;;;10.68;;
77573;SDS011;66710;48.868;9.080;2024-01-10T10:12:57;22.65;;;9.43;;
77573;SDS011;66710;48.868;9.080;2024-01-10T10:15:23;20.50;;;9.57;;
77573;SDS011;66710;48.868;9.080;2024-01-10T10:17:52;25.95;;;10.98;;
77573;SDS011;66710;48.868;9.080;2024-01-10T10:20:28;21.37;;;10.47;;
77573;SDS011;66710;48.868;9.080;2024-01-10T10:23:02;22.40;;;10.75;;
77573;SDS011;66710;48.868;9.080;2024-01-10T10:25:28;24.48;;;10.35;;
77573;SDS011;66710;48.868;9.080;2024-01-10T10:27:55;25.13;;;11.00;;
77573;SDS011;66710;48.868;9.080;2024-01-10T10:30:20;21.90;;;10.30;;
77573;SDS011;66710;48.868;9.080;2024-01-10T10:32:45;21.85;;;11.38;;
77573;SDS011;66710;48.868;9.080;2024-01-10T10:35:11;21.30;;;10.55;;
77573;SDS011;66710;48.868;9.080;2024-01-10T10:37:36;21.83;;;8.13;;
77573;SDS011;66710;48.868;9.080;2024-01-10T10:40:01;26.67;;;10.52;;
77573;SDS011;66710;48.868;9.080;2024-01-10T10:42:27;24.67;;;10.43;;
77573;SDS011;66710;48.868;9.080;2024-01-10T10:44:56;25.27;;;11.70;;
77573;SDS011;66710;48.868;9.080;2024-01-10T10:47:27;22.83;;;10.82;;
77573;SDS011;66710;48.868;9.080;2024-01-10T10:49:57;26.83;;;11.90;;
77573;SDS011;66710;48.868;9.080;2024-01-10T10:52:24;25.17;;;12.57;;
77573;SDS011;66710;48.868;9.080;2024-01-10T10:54:51;26.50;;;12.50;;
77573;SDS011;66710;48.868;9.080;2024-01-10T10:57:20;25.15;;;11.93;;
77573;SDS011;66710;48.868;9.080;2024-01-10T10:59:47;22.63;;;11.40;;
77573;SDS011;66710;48.868;9.080;2024-01-10T11:02:18;23.58;;;12.98;;
77573;SDS011;66710;48.868;9.080;2024-01-10T11:04:48;24.10;;;12.82;;
77573;SDS011;66710;48.868;9.080;2024-01-10T11:07:14;21.90;;;10.93;;
77573;SDS011;66710;48.868;9.080;2024-01-10T11:09:39;25.95;;;12.25;;
77573;SDS011;66710;48.868;9.080;2024-01-10T11:17:57;21.15;;;12.13;;
77573;SDS011;66710;48.868;9.080;2024-01-10T11:25:57;28.40;;;13.60;;
77573;SDS011;66710;48.868;9.080;2024-01-10T11:28:25;24.52;;;13.02;;
77573;SDS011;66710;48.868;9.080;2024-01-10T11:30:52;27.35;;;12.70;;
77573;SDS011;66710;48.868;9.080;2024-01-10T11:33:19;27.05;;;13.18;;
77573;SDS011;66710;48.868;9.080;2024-01-10T11:36:07;25.95;;;13.55;;
77573;SDS011;66710;48.868;9.080;2024-01-10T11:41:09;27.90;;;12.73;;
77573;SDS011;66710;48.868;9.080;2024-01-10T11:43:36;28.33;;;13.35;;
77573;SDS011;66710;48.868;9.080;2024-01-10T11:46:02;26.73;;;13.57;;
77573;SDS011;66710;48.868;9.080;2024-01-10T11:48:30;34.20;;;14.15;;
77573;SDS011;66710;48.868;9.080;2024-01-10T11:50:59;28.38;;;13.15;;
77573;SDS011;66710;48.868;9.080;2024-01-10T11:53:46;25.45;;;12.77;;
77573;SDS011;66710;48.868;9.080;2024-01-10T11:56:12;23.38;;;11.73;;
77573;SDS011;66710;48.868;9.080;2024-01-10T11:58:57;26.23;;;12.80;;
77573;SDS011;66710;48.868;9.080;2024-01-10T12:01:27;26.95;;;12.98;;
77573;SDS011;66710;48.868;9.080;2024-01-10T12:03:52;27.80;;;13.63;;
77573;SDS011;66710;48.868;9.080;2024-01-10T12:06:19;26.77;;;13.70;;
77573;SDS011;66710;48.868;9.080;2024-01-10T12:08:45;27.42;;;13.68;;
77573;SDS011;66710;48.868;9.080;2024-01-10T12:11:11;30.70;;;14.20;;
77573;SDS011;66710;48.868;9.080;2024-01-10T12:13:36;27.85;;;13.88;;
77573;SDS011;66710;48.868;9.080;2024-01-10T12:16:02;29.40;;;13.65;;
77573;SDS011;66710;48.868;9.080;2024-01-10T12:18:27;27.02;;;13.70;;
77573;SDS011;66710;48.868;9.080;2024-01-10T12:20:53;28.30;;;13.75;;
77573;SDS011;66710;48.868;9.080;2024-01-10T12:23:19;28.27;;;14.52;;
77573;SDS011;66710;48.868;9.080;2024-01-10T12:25:44;27.23;;;12.95;;
77573;SDS011;66710;48.868;9.080;2024-01-10T12:28:10;23.35;;;11.82;;
77573;SDS011;66710;48.868;9.080;2024-01-10T12:30:35;30.35;;;14.35;;
77573;SDS011;66710;48.868;9.080;2024-01-10T12:33:00;25.95;;;13.57;;
77573;SDS011;66710;48.868;9.080;2024-01-10T12:35:26;26.25;;;13.05;;
77573;SDS011;66710;48.868;9.080;2024-01-10T12:37:55;26.52;;;12.93;;
77573;SDS011;66710;48.868;9.080;2024-01-10T12:40:21;25.80;;;13.50;;
77573;SDS011;66710;48.868;9.080;2024-01-10T12:42:46;29.08;;;14.32;;
77573;SDS011;66710;48.868;9.080;2024-01-10T12:45:21;31.08;;;14.25;;
77573;SDS011;66710;48.868;9.080;2024-01-10T12:47:47;27.08;;;13.65;;
77573;SDS011;66710;48.868;9.080;2024-01-10T12:50:13;25.33;;;13.27;;
77573;SDS011;66710;48.868;9.080;2024-01-10T12:52:38;36.67;;;16.67;;
77573;SDS011;66710;48.868;9.080;2024-01-10T12:55:05;26.77;;;13.52;;
77573;SDS011;66710;48.868;9.080;2024-01-10T12:57:31;26.00;;;13.73;;
77573;SDS011;66710;48.868;9.080;2024-01-10T12:59:56;28.00;;;14.02;;
77573;SDS011;66710;48.868;9.080;2024-01-10T13:02:21;30.77;;;13.85;;
77573;SDS011;66710;48.868;9.080;2024-01-10T13:04:47;27.05;;;14.18;;
77573;SDS011;66710;48.868;9.080;2024-01-10T13:07:12;30.90;;;15.60;;
77573;SDS011;66710;48.868;9.080;2024-01-10T13:09:38;30.30;;;14.10;;
77573;SDS011;66710;48.868;9.080;2024-01-10T13:12:04;28.75;;;14.18;;
77573;SDS011;66710;48.868;9.080;2024-01-10T13:14:30;27.83;;;12.48;;
77573;SDS011;66710;48.868;9.080;2024-01-10T13:16:56;27.40;;;13.40;;
77573;SDS011;66710;48.868;9.080;2024-01-10T13:19:21;27.98;;;12.90;;
77573;SDS011;66710;48.868;9.080;2024-01-10T13:21:47;28.23;;;14.88;;
77573;SDS011;66710;48.868;9.080;2024-01-10T13:24:12;26.55;;;13.30;;
77573;SDS011;66710;48.868;9.080;2024-01-10T13:26:37;31.55;;;15.52;;
77573;SDS011;66710;48.868;9.080;2024-01-10T13:29:03;27.85;;;13.90;;
77573;SDS011;66710;48.868;9.080;2024-01-10T13:31:28;30.10;;;13.57;;
77573;SDS011;66710;48.868;9.080;2024-01-10T13:33:54;21.33;;;12.02;;
77573;SDS011;66710;48.868;9.080;2024-01-10T13:36:20;24.88;;;12.60;;
77573;SDS011;66710;48.868;9.080;2024-01-10T13:38:45;26.65;;;13.80;;
77573;SDS011;66710;48.868;9.080;2024-01-10T13:41:10;28.58;;;14.05;;
77573;SDS011;66710;48.868;9.080;2024-01-10T13:43:36;28.13;;;14.50;;
77573;SDS011;66710;48.868;9.080;2024-01-10T13:46:01;25.35;;;13.40;;
77573;SDS011;66710;48.868;9.080;2024-01-10T13:48:28;30.10;;;14.63;;
77573;SDS011;66710;48.868;9.080;2024-01-10T13:50:53;28.55;;;14.68;;
77573;SDS011;66710;48.868;9.080;2024-01-10T13:53:18;28.02;;;13.20;;
77573;SDS011;66710;48.868;9.080;2024-01-10T13:55:44;28.77;;;13.55;;
77573;SDS011;66710;48.868;9.080;2024-01-10T13:58:11;29.63;;;13.65;;
77573;SDS011;66710;48.868;9.080;2024-01-10T14:00:37;28.30;;;14.63;;
77573;SDS011;66710;48.868;9.080;2024-01-10T14:03:03;32.65;;;13.63;;
77573;SDS011;66710;48.868;9.080;2024-01-10T14:05:29;28.45;;;13.35;;
77573;SDS011;66710;48.868;9.080;2024-01-10T14:07:54;31.00;;;13.65;;
77573;SDS011;66710;48.868;9.080;2024-01-10T14:10:21;28.17;;;14.55;;
77573;SDS011;66710;48.868;9.080;2024-01-10T14:12:46;29.40;;;14.07;;
77573;SDS011;66710;48.868;9.080;2024-01-10T14:15:12;32.78;;;14.73;;
77573;SDS011;66710;48.868;9.080;2024-01-10T14:17:37;27.20;;;13.35;;
77573;SDS011;66710;48.868;9.080;2024-01-10T14:20:03;32.33;;;14.05;;
77573;SDS011;66710;48.868;9.080;2024-01-10T14:22:29;28.02;;;14.27;;
77573;SDS011;66710;48.868;9.080;2024-01-10T14:24:54;29.48;;;13.45;;
77573;SDS011;66710;48.868;9.080;2024-01-10T14:27:19;28.98;;;13.15;;
77573;SDS011;66710;48.868;9.080;2024-01-10T14:29:45;31.35;;;14.57;;
77573;SDS011;66710;48.868;9.080;2024-01-10T14:32:11;29.65;;;13.88;;
77573;SDS011;66710;48.868;9.080;2024-01-10T14:34:38;30.42;;;13.13;;
77573;SDS011;66710;48.868;9.080;2024-01-10T14:37:05;29.92;;;13.32;;
77573;SDS011;66710;48.868;9.080;2024-01-10T14:39:32;30.73;;;14.63;;
77573;SDS011;66710;48.868;9.080;2024-01-10T14:41:57;40.83;;;16.98;;